createdAt,value
2022-09-03T00:00:52.329Z,0.50
2022-09-03T00:03:38.534Z,0.40
2022-09-03T00:06:24.509Z,0.50
2022-09-03T00:09:13.461Z,0.60
2022-09-03T00:12:01.904Z,0.40
2022-09-03T00:14:49.439Z,0.50
2022-09-03T00:17:37.143Z,0.30
2022-09-03T00:20:21.740Z,0.50
2022-09-03T00:23:05.895Z,0.50
2022-09-03T00:25:52.396Z,0.30
2022-09-03T00:28:36.979Z,0.40
2022-09-03T00:31:27.576Z,0.52
2022-09-03T00:34:15.680Z,0.40
2022-09-03T00:36:58.912Z,0.60
2022-09-03T00:39:41.843Z,0.50
2022-09-03T00:42:41.026Z,0.40
2022-09-03T00:45:28.726Z,0.52
2022-09-03T00:48:17.773Z,0.52
2022-09-03T00:51:13.250Z,0.55
2022-09-03T00:54:01.631Z,0.40
2022-09-03T00:56:48.097Z,0.40
2022-09-03T00:59:38.705Z,0.43
2022-09-03T01:02:28.879Z,0.52
2022-09-03T01:05:12.707Z,0.60
2022-09-03T01:08:01.658Z,0.55
2022-09-03T01:10:47.688Z,0.50
2022-09-03T01:13:34.075Z,0.50
2022-09-03T01:16:22.379Z,0.40
2022-09-03T01:19:09.715Z,0.40
2022-09-03T01:21:58.675Z,0.40
2022-09-03T01:24:49.699Z,0.40
2022-09-03T01:27:36.809Z,0.40
2022-09-03T01:30:22.970Z,0.40
2022-09-03T01:33:10.292Z,0.45
2022-09-03T01:35:54.887Z,0.57
2022-09-03T01:38:40.021Z,0.60
2022-09-03T01:41:44.597Z,0.40
2022-09-03T01:44:33.947Z,0.43
2022-09-03T01:47:23.751Z,0.50
2022-09-03T01:50:08.187Z,0.63
2022-09-03T01:52:56.021Z,0.40
2022-09-03T01:55:45.286Z,0.60
2022-09-03T01:58:31.515Z,0.60
2022-09-03T02:01:18.255Z,0.60
2022-09-03T02:04:03.060Z,0.43
2022-09-03T02:06:48.905Z,0.68
2022-09-03T02:09:33.006Z,0.40
2022-09-03T02:12:18.676Z,0.60
2022-09-03T02:15:04.751Z,0.50
2022-09-03T02:17:49.017Z,0.55
2022-09-03T02:20:34.392Z,0.50
2022-09-03T02:23:17.844Z,0.50
2022-09-03T02:26:14.575Z,0.68
2022-09-03T02:28:58.917Z,0.70
2022-09-03T02:31:41.725Z,0.50
2022-09-03T02:34:24.670Z,0.50
2022-09-03T02:37:15.653Z,0.43
2022-09-03T02:39:58.787Z,0.50
2022-09-03T02:42:41.705Z,0.50
2022-09-03T02:45:28.227Z,0.40
2022-09-03T02:48:11.583Z,0.50
2022-09-03T02:50:54.801Z,0.60
2022-09-03T02:53:39.345Z,0.52
2022-09-03T02:56:27.192Z,0.40
2022-09-03T02:59:10.576Z,0.70
2022-09-03T03:01:53.606Z,0.52
2022-09-03T03:04:36.337Z,0.52
2022-09-03T03:07:19.406Z,0.50
2022-09-03T03:10:03.807Z,0.52
2022-09-03T03:12:46.813Z,0.60
2022-09-03T03:15:30.867Z,0.60
2022-09-03T03:18:14.306Z,0.50
2022-09-03T03:20:57.719Z,0.57
2022-09-03T03:23:41.159Z,0.60
2022-09-03T03:26:25.387Z,0.50
2022-09-03T03:29:15.190Z,0.75
2022-09-03T03:31:58.116Z,0.50
2022-09-03T03:34:41.011Z,0.40
2022-09-03T03:37:24.760Z,0.50
2022-09-03T03:40:08.211Z,0.52
2022-09-03T03:42:55.215Z,0.50
2022-09-03T03:45:37.991Z,0.50
2022-09-03T03:48:20.901Z,0.50
2022-09-03T03:51:12.422Z,0.50
2022-09-03T03:53:55.567Z,0.60
2022-09-03T03:56:38.349Z,0.57
2022-09-03T03:59:22.880Z,0.60
2022-09-03T04:02:06.103Z,0.40
2022-09-03T04:04:48.880Z,0.52
2022-09-03T04:07:31.638Z,0.73
2022-09-03T04:10:17.787Z,0.50
2022-09-03T04:13:01.041Z,0.60
2022-09-03T04:15:45.245Z,0.50
2022-09-03T04:18:28.093Z,0.40
2022-09-03T04:21:18.145Z,0.52
2022-09-03T04:24:01.104Z,0.40
2022-09-03T04:26:43.914Z,0.50
2022-09-03T04:29:30.815Z,0.50
2022-09-03T04:32:32.993Z,0.65
2022-09-03T04:35:16.355Z,0.60
2022-09-03T04:37:59.254Z,0.60
2022-09-03T04:40:42.253Z,0.60
2022-09-03T04:43:26.911Z,0.52
2022-09-03T04:46:16.187Z,0.50
2022-09-03T04:49:00.856Z,0.50
2022-09-03T04:51:44.173Z,0.40
2022-09-03T04:54:28.101Z,0.50
2022-09-03T04:57:12.421Z,0.60
2022-09-03T04:59:56.458Z,0.70
2022-09-03T05:02:39.869Z,0.43
2022-09-03T05:05:24.395Z,0.40
2022-09-03T05:08:07.368Z,0.63
2022-09-03T05:10:51.784Z,0.50
2022-09-03T05:13:40.137Z,0.60
2022-09-03T05:16:23.872Z,0.50
2022-09-03T05:19:08.217Z,0.55
2022-09-03T05:21:52.487Z,0.57
2022-09-03T05:24:35.289Z,0.60
2022-09-03T05:27:18.405Z,0.43
2022-09-03T05:30:02.475Z,0.47
2022-09-03T05:32:45.569Z,0.60
2022-09-03T05:35:30.130Z,0.52
2022-09-03T05:38:15.900Z,0.60
2022-09-03T05:40:59.552Z,0.60
2022-09-03T05:43:44.011Z,0.52
2022-09-03T05:46:31.621Z,0.60
2022-09-03T05:49:14.660Z,0.52
2022-09-03T05:51:57.740Z,0.52
2022-09-03T05:54:42.130Z,0.70
2022-09-03T05:57:25.381Z,0.50
2022-09-03T06:00:09.420Z,0.57
2022-09-03T06:02:55.502Z,0.40
2022-09-03T06:05:38.527Z,0.50
2022-09-03T06:08:21.646Z,0.60
2022-09-03T06:11:06.547Z,0.40
2022-09-03T06:13:49.935Z,0.47
2022-09-03T06:16:33.299Z,0.63
2022-09-03T06:19:16.726Z,0.57
2022-09-03T06:21:59.678Z,0.60
2022-09-03T06:24:42.598Z,0.57
2022-09-03T06:27:29.839Z,0.60
2022-09-03T06:30:13.500Z,0.57
2022-09-03T06:32:56.271Z,0.47
2022-09-03T06:35:42.804Z,0.50
2022-09-03T06:38:26.944Z,0.50
2022-09-03T06:41:27.404Z,0.50
2022-09-03T06:44:13.365Z,0.70
2022-09-03T06:46:56.098Z,0.50
2022-09-03T06:49:39.161Z,0.50
2022-09-03T06:52:23.760Z,0.88
2022-09-03T06:55:07.104Z,0.50
2022-09-03T06:57:52.893Z,0.75
2022-09-03T07:00:37.405Z,0.60
2022-09-03T07:03:20.587Z,0.50
2022-09-03T07:06:03.824Z,0.40
2022-09-03T07:08:47.042Z,0.90
2022-09-03T07:11:31.129Z,0.68
2022-09-03T07:14:14.211Z,0.70
2022-09-03T07:16:58.534Z,0.57
2022-09-03T07:19:41.411Z,0.60
2022-09-03T07:22:31.217Z,0.60
2022-09-03T07:25:14.768Z,0.60
2022-09-03T07:27:58.305Z,0.40
2022-09-03T07:30:40.954Z,0.63
2022-09-03T07:33:25.361Z,0.60
2022-09-03T07:36:08.788Z,0.55
2022-09-03T07:38:52.128Z,0.50
2022-09-03T07:41:35.065Z,0.63
2022-09-03T07:44:20.109Z,0.65
2022-09-03T07:47:03.464Z,0.47
2022-09-03T07:49:48.753Z,0.68
2022-09-03T07:52:31.758Z,0.60
2022-09-03T07:55:14.772Z,0.63
2022-09-03T07:57:58.512Z,0.70
2022-09-03T08:00:42.035Z,0.60
2022-09-03T08:03:28.084Z,0.80
2022-09-03T08:06:32.567Z,0.80
2022-09-03T08:09:16.936Z,0.70
2022-09-03T08:12:00.865Z,0.77
2022-09-03T08:14:43.862Z,0.70
2022-09-03T08:17:26.711Z,0.60
2022-09-03T08:20:10.236Z,0.63
2022-09-03T08:22:53.258Z,0.70
2022-09-03T08:25:37.504Z,0.55
2022-09-03T08:28:20.360Z,0.80
2022-09-03T08:31:06.564Z,0.65
2022-09-03T08:33:50.862Z,0.70
2022-09-03T08:36:53.320Z,0.70
2022-09-03T08:39:36.276Z,0.70
2022-09-03T08:42:26.943Z,0.65
2022-09-03T08:45:11.405Z,0.70
2022-09-03T08:47:58.936Z,0.68
2022-09-03T08:50:43.290Z,0.60
2022-09-03T08:53:31.067Z,0.70
2022-09-03T08:56:30.232Z,0.75
2022-09-03T08:59:17.054Z,0.70
2022-09-03T09:02:07.227Z,0.70
2022-09-03T09:04:58.104Z,0.50
2022-09-03T09:07:50.345Z,0.60
2022-09-03T09:10:39.104Z,0.50
2022-09-03T09:13:30.884Z,0.70
2022-09-03T09:16:40.592Z,0.60
2022-09-03T09:19:29.153Z,0.68
2022-09-03T09:22:18.021Z,2.10
2022-09-03T09:25:03.897Z,1.38
2022-09-03T09:27:51.703Z,0.70
2022-09-03T09:30:35.138Z,0.80
2022-09-03T09:33:35.633Z,1.00
2022-09-03T09:36:29.398Z,0.93
2022-09-03T09:39:21.313Z,0.60
2022-09-03T09:42:09.637Z,0.60
2022-09-03T09:44:52.289Z,0.70
2022-09-03T09:47:38.457Z,0.60
2022-09-03T09:50:26.531Z,0.60
2022-09-03T09:53:14.829Z,0.70
2022-09-03T09:55:58.523Z,0.50
2022-09-03T09:58:41.376Z,0.52
2022-09-03T10:01:33.290Z,0.65
2022-09-03T10:04:23.487Z,0.50
2022-09-03T10:07:20.726Z,0.63
2022-09-03T10:10:06.614Z,0.80
2022-09-03T10:12:51.535Z,0.70
2022-09-03T10:15:47.538Z,0.82
2022-09-03T10:18:38.129Z,0.55
2022-09-03T10:21:33.031Z,0.77
2022-09-03T10:24:39.629Z,0.75
2022-09-03T10:27:23.423Z,0.60
2022-09-03T10:30:07.917Z,0.50
2022-09-03T10:32:59.852Z,0.50
2022-09-03T10:35:45.916Z,0.40
2022-09-03T10:38:30.070Z,0.10
2022-09-03T10:41:33.353Z,0.20
2022-09-03T10:44:27.232Z,0.50
2022-09-03T10:47:18.584Z,0.10
2022-09-03T10:50:04.382Z,0.30
2022-09-03T10:52:58.971Z,0.30
2022-09-03T10:55:47.272Z,0.20
2022-09-03T10:58:38.312Z,0.38
2022-09-03T11:01:39.618Z,0.20
2022-09-03T11:04:27.160Z,0.30
2022-09-03T11:07:10.838Z,0.30
2022-09-03T11:09:57.450Z,0.47
2022-09-03T11:12:43.544Z,0.30
2022-09-03T11:15:28.406Z,0.20
2022-09-03T11:18:16.089Z,0.30
2022-09-03T11:21:07.628Z,0.25
2022-09-03T11:23:55.570Z,0.22
2022-09-03T11:26:39.645Z,0.50
2022-09-03T11:29:25.483Z,0.40
2022-09-03T11:32:11.943Z,0.28
2022-09-03T11:34:56.245Z,0.30
2022-09-03T11:37:49.321Z,0.20
2022-09-03T11:40:35.928Z,0.45
2022-09-03T11:43:27.987Z,0.20
2022-09-03T11:46:30.495Z,0.30
2022-09-03T11:49:14.346Z,0.22
2022-09-03T11:52:01.353Z,0.30
2022-09-03T11:54:44.835Z,0.40
2022-09-03T11:57:29.589Z,0.40
2022-09-03T12:00:14.146Z,0.20
2022-09-03T12:02:59.110Z,0.47
2022-09-03T12:05:45.421Z,0.30
2022-09-03T12:08:47.152Z,0.40
2022-09-03T12:11:37.054Z,0.50
2022-09-03T12:14:23.533Z,0.50
2022-09-03T12:17:12.767Z,0.50
2022-09-03T12:19:56.258Z,0.30
2022-09-03T12:22:39.910Z,0.20
2022-09-03T12:25:24.302Z,0.43
2022-09-03T12:28:13.042Z,0.40
2022-09-03T12:33:54.018Z,0.30
2022-09-03T12:36:38.199Z,0.30
2022-09-03T12:40:05.136Z,0.32
2022-09-03T12:42:29.528Z,0.40
2022-09-03T12:45:16.545Z,0.40
2022-09-03T12:47:59.402Z,0.35
2022-09-03T12:50:48.585Z,0.30
2022-09-03T12:53:33.683Z,0.28
2022-09-03T12:56:17.528Z,0.35
2022-09-03T12:59:05.055Z,0.60
2022-09-03T13:01:50.823Z,0.40
2022-09-03T13:04:34.926Z,0.32
2022-09-03T13:07:22.938Z,0.30
2022-09-03T13:10:07.860Z,0.40
2022-09-03T13:12:53.380Z,0.20
2022-09-03T13:15:38.248Z,0.30
2022-09-03T13:18:25.051Z,0.30
2022-09-03T13:21:12.903Z,0.30
2022-09-03T13:24:05.745Z,0.20
2022-09-03T13:26:52.592Z,0.30
2022-09-03T13:29:40.853Z,0.30
2022-09-03T13:32:28.741Z,0.20
2022-09-03T13:35:14.523Z,0.30
2022-09-03T13:38:01.854Z,0.30
2022-09-03T13:40:49.722Z,0.38
2022-09-03T13:43:36.393Z,0.30
2022-09-03T13:46:22.229Z,0.20
2022-09-03T13:49:27.188Z,0.30
2022-09-03T13:52:19.781Z,0.50
2022-09-03T13:55:04.225Z,0.30
2022-09-03T13:57:53.289Z,0.20
2022-09-03T14:00:42.059Z,0.30
2022-09-03T14:03:27.248Z,0.28
2022-09-03T14:06:15.059Z,0.30
2022-09-03T14:09:05.475Z,0.20
2022-09-03T14:11:52.134Z,0.28
2022-09-03T14:14:41.581Z,0.40
2022-09-03T14:17:31.982Z,0.40
2022-09-03T14:20:20.452Z,0.20
2022-09-03T14:23:06.557Z,0.20
2022-09-03T14:25:53.601Z,0.30
2022-09-03T14:28:37.499Z,0.28
2022-09-03T14:31:24.931Z,0.30
2022-09-03T14:34:09.954Z,0.32
2022-09-03T14:36:56.905Z,0.50
2022-09-03T14:39:47.269Z,0.30
2022-09-03T14:42:40.504Z,0.32
2022-09-03T14:45:29.690Z,0.32
2022-09-03T14:48:26.379Z,0.30
2022-09-03T14:51:19.916Z,0.50
2022-09-03T14:54:11.201Z,0.32
2022-09-03T14:57:04.182Z,0.30
2022-09-03T14:59:55.027Z,0.38
2022-09-03T15:02:47.857Z,0.40
2022-09-03T15:05:47.617Z,0.38
2022-09-03T15:08:39.038Z,0.30
2022-09-03T15:11:23.289Z,0.28
2022-09-03T15:14:11.547Z,0.22
2022-09-03T15:16:58.266Z,0.20
2022-09-03T15:19:49.457Z,0.20
2022-09-03T15:22:38.236Z,0.13
2022-09-03T15:25:26.865Z,0.15
2022-09-03T15:28:13.823Z,0.30
2022-09-03T15:31:01.790Z,0.25
2022-09-03T15:33:49.909Z,0.40
2022-09-03T15:36:37.418Z,0.20
2022-09-03T15:39:22.223Z,0.10
2022-09-03T15:42:07.909Z,0.20
2022-09-03T15:44:52.951Z,0.30
2022-09-03T15:47:51.762Z,0.28
2022-09-03T15:50:36.379Z,0.20
2022-09-03T15:53:24.372Z,0.20
2022-09-03T15:56:14.732Z,0.20
2022-09-03T15:59:01.128Z,0.10
2022-09-03T16:01:46.908Z,0.30
2022-09-03T16:04:40.211Z,0.10
2022-09-03T16:07:27.291Z,0.30
2022-09-03T16:10:28.213Z,0.10
2022-09-03T16:13:22.831Z,0.20
2022-09-03T16:16:11.125Z,0.10
2022-09-03T16:19:00.318Z,0.13
2022-09-03T16:21:47.004Z,0.10
2022-09-03T16:24:34.656Z,0.10
2022-09-03T16:27:18.913Z,0.20
2022-09-03T16:30:03.199Z,0.20
2022-09-03T16:32:56.441Z,0.30
2022-09-03T16:35:44.511Z,0.30
2022-09-03T16:38:32.407Z,1.20
2022-09-03T16:41:20.329Z,1.00
2022-09-03T16:44:10.086Z,0.70
2022-09-03T16:46:56.593Z,0.50
2022-09-03T16:49:45.009Z,0.30
2022-09-03T16:52:38.444Z,0.50
2022-09-03T16:55:26.192Z,0.40
2022-09-03T16:58:14.511Z,0.40
2022-09-03T17:01:07.623Z,0.38
2022-09-03T17:03:58.151Z,0.30
2022-09-03T17:06:45.220Z,0.40
2022-09-03T17:09:35.687Z,0.30
2022-09-03T17:12:26.609Z,0.43
2022-09-03T17:15:26.816Z,0.30
2022-09-03T17:18:15.598Z,0.50
2022-09-03T17:21:15.221Z,0.50
2022-09-03T17:24:07.012Z,0.47
2022-09-03T17:26:55.926Z,0.52
2022-09-03T17:29:47.456Z,0.70
2022-09-03T17:32:36.359Z,0.40
2022-09-03T17:35:21.141Z,0.55
2022-09-03T17:38:09.188Z,0.55
2022-09-03T17:40:58.485Z,0.75
2022-09-03T17:43:45.290Z,0.50
2022-09-03T17:46:33.384Z,0.60
2022-09-03T17:49:22.184Z,0.75
2022-09-03T17:52:06.342Z,0.68
2022-09-03T17:54:50.872Z,0.70
2022-09-03T17:57:40.626Z,0.70
2022-09-03T18:00:24.430Z,0.90
2022-09-03T18:03:12.769Z,0.90
2022-09-03T18:06:01.087Z,1.02
2022-09-03T18:08:47.196Z,0.73
2022-09-03T18:11:33.906Z,0.65
2022-09-03T18:14:21.610Z,1.00
2022-09-03T18:17:06.196Z,0.80
2022-09-03T18:20:08.721Z,0.75
2022-09-03T18:23:11.500Z,0.80
2022-09-03T18:26:13.388Z,0.88
2022-09-03T18:29:17.356Z,0.80
2022-09-03T18:32:18.494Z,0.80
2022-09-03T18:35:20.588Z,0.80
2022-09-03T18:38:21.725Z,0.80
2022-09-03T18:41:25.094Z,1.00
2022-09-03T18:44:30.350Z,0.90
2022-09-03T18:51:05.828Z,0.93
2022-09-03T18:54:11.353Z,0.77
2022-09-03T18:57:12.472Z,0.90
2022-09-03T19:00:24.365Z,0.80
2022-09-03T19:03:41.002Z,1.00
2022-09-03T19:06:49.665Z,0.60
2022-09-03T19:09:55.386Z,0.60
2022-09-03T19:13:02.215Z,0.80
2022-09-03T19:16:08.807Z,0.90
2022-09-03T19:19:27.911Z,1.08
2022-09-03T19:22:30.265Z,0.80
2022-09-03T19:25:31.872Z,0.80
2022-09-03T19:28:33.255Z,0.80
2022-09-03T19:31:43.523Z,0.70
2022-09-03T19:35:02.956Z,0.68
2022-09-03T19:38:12.322Z,0.88
2022-09-03T19:41:17.894Z,0.70
2022-09-03T19:44:24.339Z,0.77
2022-09-03T19:47:26.299Z,0.80
2022-09-03T19:50:32.265Z,0.73
2022-09-03T19:53:36.296Z,0.75
2022-09-03T19:56:39.670Z,0.68
2022-09-03T19:59:41.442Z,0.90
2022-09-03T20:02:41.868Z,0.60
2022-09-03T20:05:42.403Z,0.63
2022-09-03T20:08:43.879Z,0.70
2022-09-03T20:11:27.712Z,0.70
2022-09-03T20:14:15.035Z,0.88
2022-09-03T20:17:02.436Z,0.65
2022-09-03T20:19:52.534Z,0.77
2022-09-03T20:22:39.228Z,0.75
2022-09-03T20:25:29.783Z,0.88
2022-09-03T20:28:19.538Z,1.00
2022-09-03T20:31:06.135Z,0.73
2022-09-03T20:33:54.648Z,0.68
2022-09-03T20:36:43.599Z,0.70
2022-09-03T20:39:37.335Z,0.73
2022-09-03T20:42:34.895Z,0.75
2022-09-03T20:45:19.239Z,0.50
2022-09-03T20:48:07.426Z,0.40
2022-09-03T20:50:57.283Z,0.55
2022-09-03T20:53:44.992Z,0.60
2022-09-03T20:56:31.775Z,0.60
2022-09-03T20:59:19.301Z,0.65
2022-09-03T21:02:09.201Z,0.40
2022-09-03T21:04:56.320Z,0.50
2022-09-03T21:07:47.697Z,0.60
2022-09-03T21:10:33.523Z,0.47
2022-09-03T21:13:19.745Z,0.60
2022-09-03T21:16:07.966Z,0.60
2022-09-03T21:18:54.304Z,0.47
2022-09-03T21:21:42.849Z,0.50
2022-09-03T21:24:31.357Z,0.70
2022-09-03T21:27:16.722Z,0.55
2022-09-03T21:30:01.964Z,0.45
2022-09-03T21:32:49.007Z,0.60
2022-09-03T21:35:33.939Z,0.40
2022-09-03T21:38:18.681Z,0.55
2022-09-03T21:41:07.317Z,0.40
2022-09-03T21:43:53.969Z,0.43
2022-09-03T21:46:38.984Z,0.40
2022-09-03T21:49:26.232Z,0.50
2022-09-03T21:52:10.595Z,0.43
2022-09-03T21:54:53.320Z,0.30
2022-09-03T21:57:43.930Z,0.47
2022-09-03T22:00:32.386Z,0.30
2022-09-03T22:03:15.128Z,0.43
2022-09-03T22:06:02.170Z,0.50
2022-09-03T22:08:49.211Z,0.47
2022-09-03T22:11:36.661Z,0.50
2022-09-03T22:14:21.021Z,0.43
2022-09-03T22:17:10.138Z,0.40
2022-09-03T22:19:53.026Z,0.50
2022-09-03T22:22:43.870Z,0.50
2022-09-03T22:25:31.433Z,0.35
2022-09-03T22:28:19.310Z,0.30
2022-09-03T22:31:07.378Z,0.52
2022-09-03T22:33:52.054Z,0.60
2022-09-03T22:36:37.679Z,0.30
2022-09-03T22:39:27.515Z,0.50
2022-09-03T22:42:20.072Z,0.40
2022-09-03T22:45:10.668Z,0.47
2022-09-03T22:47:58.031Z,0.50
2022-09-03T22:50:45.353Z,0.40
2022-09-03T22:53:34.097Z,0.50
2022-09-03T22:56:21.924Z,0.50
2022-09-03T22:59:07.321Z,0.38
2022-09-03T23:01:54.332Z,0.40
2022-09-03T23:04:41.353Z,0.47
2022-09-03T23:07:28.050Z,0.55
2022-09-03T23:10:11.992Z,0.50
2022-09-03T23:13:02.866Z,0.47
2022-09-03T23:15:47.307Z,0.60
2022-09-03T23:18:32.358Z,0.50
2022-09-03T23:21:22.228Z,0.47
2022-09-03T23:24:09.266Z,0.50
2022-09-03T23:26:53.586Z,0.40
2022-09-03T23:29:40.363Z,0.43
2022-09-03T23:32:25.516Z,0.40
2022-09-03T23:35:16.188Z,0.38
2022-09-03T23:38:11.393Z,0.40
2022-09-03T23:40:55.807Z,0.30
2022-09-03T23:43:47.152Z,0.70
2022-09-03T23:46:35.485Z,0.47
2022-09-03T23:49:28.859Z,0.43
2022-09-03T23:52:21.828Z,0.50
2022-09-03T23:55:08.464Z,0.40
2022-09-03T23:57:58.109Z,0.52
